Port Sheldon, Michigan
Current Conditions -  °F | °C
As of 10:53 AM on Sunday 21 Dec 2014 (Local Time) from KBIV Reporting Station
Haze Haze  
Wind Chill: 27°   Ceiling: 2400
Heat Index: 34°   Visibility: 6mi
Dew Point: 27°   Wind: 9mph
Humidity: 75%   Direction: 160°SSE
Pressure: 30.24"   Gusts: NA
Location:  42.9384°N, 86.1343°W
Report Text: KBIV 211553Z AUTO 16008KT 6SM HZ BKN024 OVC042 01/M03 A3024 RMK AO2 SLP249 T00111028
Loading
Personal Weather Stations






























Interactive Weather Map New forecast layout! Learn more

10-Day Weather Forecast

Advertisements
Track Severe Weather on mobile